Time;durP1;ratioP1;P1;durP2;ratioP2;P2;SDS_P1;SDS_P2;PMS_P1;PMS_P2;Temp;Humidity;BMP_temperature;BMP_pressure;BME280_temperature;BME280_humidity;BME280_pressure;Samples;Min_cycle;Max_cycle;Signal;HPM_P1;HPM_P2
2022/01/20 00:01:59;;;;;;;6.95;3.65;;;19.10;99.90;;;;;;4232297;27;20614;-79
2022/01/20 00:04:04;;;;;;;6.28;2.90;;;19.10;99.90;;;;;;4228065;28;20210;-79
2022/01/20 00:08:36;;;;;;;8.18;3.35;;;19.10;99.90;;;;;;4197579;28;20262;-79
2022/01/20 00:27:17;;;;;;;7.97;3.33;;;19.00;99.90;;;;;;4177461;28;20226;-79
2022/01/20 00:29:30;;;;;;;7.55;3.47;;;19.00;99.90;;;;;;4181378;28;20305;-79
2022/01/20 00:31:40;;;;;;;5.10;3.15;;;19.00;99.90;;;;;;4178071;28;20222;-79
2022/01/20 00:33:45;;;;;;;6.60;3.38;;;19.00;99.90;;;;;;4226889;28;20233;-79
2022/01/20 00:38:08;;;;;;;6.32;3.08;;;19.00;99.90;;;;;;4245441;27;20195;-79
2022/01/20 00:40:13;;;;;;;6.68;2.92;;;19.00;99.90;;;;;;4230412;27;20214;-79
2022/01/20 00:42:16;;;;;;;7.70;3.17;;;19.00;99.90;;;;;;4243436;27;20213;-79
2022/01/20 00:44:18;;;;;;;7.95;3.17;;;18.90;99.90;;;;;;4245811;27;21000;-80
2022/01/20 00:46:21;;;;;;;5.47;3.35;;;18.90;99.90;;;;;;4238470;27;20459;-79
2022/01/20 00:48:23;;;;;;;5.35;2.85;;;19.00;99.90;;;;;;4230462;28;20206;-79
2022/01/20 00:50:26;;;;;;;6.85;2.92;;;18.90;99.90;;;;;;4234650;27;20205;-79
2022/01/20 00:52:28;;;;;;;8.48;3.25;;;18.90;99.90;;;;;;4233157;27;20214;-80
2022/01/20 00:54:31;;;;;;;6.68;3.45;;;18.90;99.90;;;;;;4230736;28;20261;-79
2022/01/20 00:56:34;;;;;;;8.88;3.72;;;18.90;99.90;;;;;;4234844;27;20257;-79
2022/01/20 00:58:37;;;;;;;6.25;3.38;;;18.90;99.90;;;;;;4246990;27;20234;-79
2022/01/20 01:00:39;;;;;;;4.25;2.55;;;18.90;99.90;;;;;;4235485;27;20267;-79
2022/01/20 01:02:42;;;;;;;4.75;2.65;;;18.90;99.90;;;;;;4232307;27;20218;-79
2022/01/20 01:04:44;;;;;;;6.90;3.38;;;18.90;99.90;;;;;;4230286;28;20213;-79
2022/01/20 01:07:05;;;;;;;6.45;2.72;;;18.90;99.90;;;;;;4245899;27;20241;-79
2022/01/20 01:09:08;;;;;;;7.55;3.47;;;18.90;99.90;;;;;;4233207;27;20269;-80
2022/01/20 01:11:10;;;;;;;5.32;2.70;;;18.90;99.90;;;;;;4247370;27;20269;-79
2022/01/20 01:13:16;;;;;;;7.55;3.53;;;18.80;99.90;;;;;;4237677;27;20217;-79
2022/01/20 01:15:22;;;;;;;6.78;3.17;;;18.80;99.90;;;;;;4234283;27;20593;-79
2022/01/20 01:22:21;;;;;;;5.68;2.92;;;18.80;99.90;;;;;;4227873;27;20243;-79
2022/01/20 01:24:23;;;;;;;5.45;2.85;;;18.80;99.90;;;;;;4242625;27;20564;-79
2022/01/20 01:26:28;;;;;;;5.43;2.63;;;18.80;99.90;;;;;;4232008;27;20272;-79
2022/01/20 01:28:32;;;;;;;6.88;3.05;;;18.80;99.90;;;;;;4229684;28;20222;-79
2022/01/20 01:30:57;;;;;;;6.50;2.88;;;18.80;99.90;;;;;;4230553;27;20992;-79
2022/01/20 01:33:00;;;;;;;7.75;3.15;;;18.80;99.90;;;;;;4229175;27;20721;-79
2022/01/20 01:35:06;;;;;;;6.05;2.90;;;18.80;99.90;;;;;;4226170;28;20234;-79
2022/01/20 01:37:34;;;;;;;6.40;2.90;;;18.80;99.90;;;;;;4229619;28;20259;-79
2022/01/20 01:39:31;;;;;;;5.85;2.67;;;18.80;99.90;;;;;;4229450;28;20267;-79
2022/01/20 01:41:36;;;;;;;7.97;2.88;;;18.70;99.90;;;;;;4239795;27;20262;-79
2022/01/20 01:43:43;;;;;;;6.15;2.97;;;18.70;99.90;;;;;;4246353;27;20603;-79
2022/01/20 01:45:46;;;;;;;7.95;2.95;;;18.70;99.90;;;;;;4242739;27;20214;-79
2022/01/20 01:47:48;;;;;;;6.13;3.17;;;18.70;99.90;;;;;;4226915;28;20234;-79
2022/01/20 01:49:54;;;;;;;4.75;2.85;;;18.70;99.90;;;;;;4227013;28;20231;-79
2022/01/20 01:51:56;;;;;;;4.82;2.67;;;18.70;99.90;;;;;;4230579;27;20214;-79
2022/01/20 01:53:58;;;;;;;6.85;2.97;;;18.70;99.90;;;;;;4229536;28;20682;-79
2022/01/20 01:56:02;;;;;;;6.10;2.90;;;18.70;99.90;;;;;;4229719;28;20246;-79
2022/01/20 01:58:04;;;;;;;5.50;2.70;;;18.70;99.90;;;;;;4232442;27;20258;-79
2022/01/20 02:00:11;;;;;;;6.55;2.50;;;18.70;99.90;;;;;;4241905;27;20217;-79
2022/01/20 02:02:13;;;;;;;8.13;2.92;;;18.70;99.90;;;;;;4232539;27;20658;-79
2022/01/20 02:04:18;;;;;;;7.38;2.88;;;18.70;99.90;;;;;;4237783;27;20278;-79
2022/01/20 02:06:47;;;;;;;6.75;2.65;;;18.60;99.90;;;;;;4243757;27;20613;-79
2022/01/20 02:08:57;;;;;;;7.22;3.35;;;18.60;99.90;;;;;;4228449;28;20210;-79
2022/01/20 02:18:25;;;;;;;8.18;3.00;;;18.70;99.90;;;;;;4171084;28;20892;-79
2022/01/20 02:20:30;;;;;;;7.97;3.33;;;18.60;99.90;;;;;;4233113;27;20205;-79
2022/01/20 02:22:32;;;;;;;7.68;3.17;;;18.60;99.90;;;;;;4227655;28;20230;-79
2022/01/20 02:24:34;;;;;;;6.90;3.28;;;18.60;99.90;;;;;;4228858;28;20722;-79
2022/01/20 02:26:36;;;;;;;7.10;2.90;;;18.60;99.90;;;;;;4232311;27;20216;-78
2022/01/20 02:28:39;;;;;;;7.22;3.10;;;18.60;99.90;;;;;;4242006;27;20213;-79
2022/01/20 02:30:43;;;;;;;6.90;2.90;;;18.60;99.90;;;;;;4233200;27;20691;-79
2022/01/20 02:32:53;;;;;;;5.75;2.67;;;18.60;99.90;;;;;;4229549;27;20653;-79
2022/01/20 02:34:55;;;;;;;6.13;2.42;;;18.60;99.90;;;;;;4244900;27;20221;-79
2022/01/20 02:37:02;;;;;;;5.97;2.80;;;18.60;99.90;;;;;;4244682;27;20234;-79
2022/01/20 02:39:11;;;;;;;3.95;2.25;;;18.60;99.90;;;;;;4228937;27;20251;-79
2022/01/20 02:45:52;;;;;;;5.18;2.42;;;18.60;99.90;;;;;;4228661;28;20186;-79
2022/01/20 02:47:55;;;;;;;7.05;2.80;;;18.60;99.90;;;;;;4240172;27;20262;-79
2022/01/20 02:49:57;;;;;;;6.75;2.50;;;18.50;99.90;;;;;;4242801;27;20201;-79
2022/01/20 02:52:01;;;;;;;5.05;2.63;;;18.50;99.90;;;;;;4237441;27;20205;-79
2022/01/20 02:54:04;;;;;;;6.90;2.40;;;18.60;99.90;;;;;;4228796;28;20247;-79
2022/01/20 02:56:07;;;;;;;6.30;2.63;;;18.50;99.90;;;;;;4234449;28;20209;-79
2022/01/20 02:58:09;;;;;;;6.35;2.88;;;18.50;99.90;;;;;;4244048;28;20201;-79
2022/01/20 03:00:13;;;;;;;6.75;2.80;;;18.50;99.90;;;;;;4243448;28;20209;-79
2022/01/20 03:02:15;;;;;;;6.80;2.30;;;18.50;99.90;;;;;;4231760;28;20270;-79
2022/01/20 03:04:20;;;;;;;5.93;2.67;;;18.50;99.90;;;;;;4228481;28;20218;-79
2022/01/20 03:06:22;;;;;;;6.47;2.67;;;18.50;99.90;;;;;;4227665;28;20217;-79
2022/01/20 03:08:26;;;;;;;5.57;2.75;;;18.50;99.90;;;;;;4228250;28;20226;-79
2022/01/20 03:10:28;;;;;;;5.75;2.40;;;18.50;99.90;;;;;;4228321;28;20209;-79
2022/01/20 03:12:30;;;;;;;6.50;2.38;;;18.50;99.90;;;;;;4234316;28;20225;-79
2022/01/20 03:14:33;;;;;;;5.57;2.60;;;18.50;99.90;;;;;;4229492;28;20225;-79
2022/01/20 03:16:35;;;;;;;6.13;2.25;;;18.40;99.90;;;;;;4240197;28;20214;-79
2022/01/20 03:18:37;;;;;;;5.70;2.33;;;18.50;99.90;;;;;;4224605;28;20243;-80
2022/01/20 03:20:40;;;;;;;6.07;2.72;;;18.50;99.90;;;;;;4229070;28;20209;-79
2022/01/20 03:22:43;;;;;;;6.95;2.75;;;18.50;99.90;;;;;;4230744;28;20205;-80
2022/01/20 03:24:47;;;;;;;5.40;2.58;;;18.40;99.90;;;;;;4230409;28;20213;-80
2022/01/20 03:26:49;;;;;;;8.60;2.65;;;18.50;99.90;;;;;;4230500;28;20263;-80
2022/01/20 03:28:51;;;;;;;7.18;2.70;;;18.40;99.90;;;;;;4229472;28;20646;-80
2022/01/20 03:30:53;;;;;;;5.57;2.10;;;18.40;99.90;;;;;;4243083;27;20217;-79
2022/01/20 03:32:56;;;;;;;4.80;2.33;;;18.50;99.90;;;;;;4243016;27;20259;-79
2022/01/20 03:34:59;;;;;;;6.68;2.63;;;18.40;99.90;;;;;;4232404;27;20253;-79
2022/01/20 03:37:03;;;;;;;5.30;2.13;;;18.40;99.90;;;;;;4232589;28;20225;-80
2022/01/20 03:39:07;;;;;;;7.78;2.60;;;18.40;99.90;;;;;;4245111;27;20602;-80
2022/01/20 03:41:10;;;;;;;6.10;2.45;;;18.40;99.90;;;;;;4232547;28;20213;-79
2022/01/20 03:43:13;;;;;;;5.78;2.33;;;18.40;99.90;;;;;;4246018;27;20870;-79
2022/01/20 03:45:15;;;;;;;6.95;2.97;;;18.40;99.90;;;;;;4243043;27;20259;-80
2022/01/20 03:47:18;;;;;;;6.38;2.17;;;18.40;99.90;;;;;;4233644;27;20661;-79
2022/01/20 03:49:29;;;;;;;7.22;2.38;;;18.40;99.90;;;;;;4248494;27;20262;-80
2022/01/20 03:51:32;;;;;;;7.53;2.50;;;18.30;99.90;;;;;;4236456;27;20282;-80
2022/01/20 03:53:38;;;;;;;5.57;2.50;;;18.30;99.90;;;;;;4242984;27;20214;-79
2022/01/20 03:55:41;;;;;;;5.82;2.60;;;18.30;99.90;;;;;;4232110;28;20251;-79
2022/01/20 03:57:45;;;;;;;5.82;2.20;;;18.30;99.90;;;;;;4231666;28;20257;-80
2022/01/20 03:59:47;;;;;;;5.47;2.20;;;18.30;99.90;;;;;;4244703;27;20254;-80
2022/01/20 04:01:50;;;;;;;5.22;2.15;;;18.30;99.90;;;;;;4248125;27;20317;-80
2022/01/20 04:03:52;;;;;;;4.43;2.13;;;18.30;99.90;;;;;;4234839;27;20590;-80
2022/01/20 04:05:57;;;;;;;5.97;2.22;;;18.30;99.90;;;;;;4242211;27;20258;-79
2022/01/20 04:07:59;;;;;;;5.15;2.08;;;18.30;99.90;;;;;;4229460;27;20237;-79
2022/01/20 04:10:02;;;;;;;4.95;2.05;;;18.30;99.90;;;;;;4235736;27;20214;-80
2022/01/20 04:12:04;;;;;;;4.40;1.90;;;18.30;99.90;;;;;;4231718;28;20217;-80
2022/01/20 04:14:08;;;;;;;5.50;2.35;;;18.30;99.90;;;;;;4241029;27;20209;-79
2022/01/20 04:16:15;;;;;;;5.38;2.33;;;18.30;99.90;;;;;;4234099;27;20206;-79
2022/01/20 04:18:21;;;;;;;6.68;2.33;;;18.30;99.90;;;;;;4230110;28;20209;-79
2022/01/20 04:20:24;;;;;;;4.72;2.38;;;18.30;99.90;;;;;;4229066;28;20214;-79
2022/01/20 04:22:27;;;;;;;3.97;2.05;;;18.30;99.90;;;;;;4242401;27;20641;-79
2022/01/20 04:24:30;;;;;;;6.00;2.50;;;18.20;99.90;;;;;;4242017;27;20662;-79
2022/01/20 04:26:33;;;;;;;4.03;2.05;;;18.20;99.90;;;;;;4234954;27;20673;-79
2022/01/20 04:28:35;;;;;;;4.90;2.22;;;18.20;99.90;;;;;;4245713;27;20233;-79
2022/01/20 04:30:39;;;;;;;5.72;2.60;;;18.20;99.90;;;;;;4245830;27;20213;-79
2022/01/20 04:32:41;;;;;;;5.10;2.10;;;18.20;99.90;;;;;;4239529;27;20213;-79
2022/01/20 04:34:44;;;;;;;4.72;2.40;;;18.20;99.90;;;;;;4236497;27;20271;-79
2022/01/20 04:36:51;;;;;;;4.72;2.10;;;18.20;99.90;;;;;;4227545;28;20226;-79
2022/01/20 04:38:54;;;;;;;5.65;2.10;;;18.20;99.90;;;;;;4239156;27;20213;-79
2022/01/20 04:40:56;;;;;;;4.75;2.33;;;18.20;99.90;;;;;;4245552;27;20262;-79
2022/01/20 04:42:58;;;;;;;5.97;2.03;;;18.20;99.90;;;;;;4236571;27;20259;-78
2022/01/20 04:45:05;;;;;;;3.95;2.10;;;18.20;99.90;;;;;;4230521;28;20217;-78
2022/01/20 04:47:28;;;;;;;5.03;2.10;;;18.20;99.90;;;;;;4230338;28;20224;-79
2022/01/20 04:58:49;;;;;;;5.45;2.10;;;18.20;99.90;;;;;;4232340;27;20198;-78
2022/01/20 05:00:52;;;;;;;5.10;1.98;;;18.10;99.90;;;;;;4245104;27;20645;-78
2022/01/20 05:02:56;;;;;;;4.00;1.80;;;18.10;99.90;;;;;;4244823;27;20257;-79
2022/01/20 05:04:58;;;;;;;5.63;2.13;;;18.10;99.90;;;;;;4233473;27;20267;-79
2022/01/20 05:07:01;;;;;;;4.18;1.58;;;18.10;99.90;;;;;;4225157;27;20217;-79
2022/01/20 05:09:03;;;;;;;5.70;2.05;;;18.10;99.90;;;;;;4226283;27;20230;-79
2022/01/20 05:11:06;;;;;;;4.57;2.00;;;18.10;99.90;;;;;;4227763;27;20283;-78
2022/01/20 05:13:12;;;;;;;3.60;1.88;;;18.10;99.90;;;;;;4229908;28;20214;-78
2022/01/20 05:15:15;;;;;;;5.10;2.13;;;18.10;99.90;;;;;;4231826;27;20229;-79
2022/01/20 05:17:17;;;;;;;5.10;2.22;;;18.10;99.90;;;;;;4225991;28;20218;-79
2022/01/20 05:19:21;;;;;;;3.90;1.77;;;18.10;99.90;;;;;;4230859;27;20210;-79
2022/01/20 05:21:23;;;;;;;4.55;1.92;;;18.10;99.90;;;;;;4246230;27;20213;-79
2022/01/20 05:23:25;;;;;;;4.72;1.92;;;18.10;99.90;;;;;;4234344;27;20225;-79
2022/01/20 05:25:28;;;;;;;4.00;1.92;;;18.00;99.90;;;;;;4237821;27;20337;-79
2022/01/20 05:27:31;;;;;;;5.15;2.15;;;18.00;99.90;;;;;;4243618;27;20206;-79
2022/01/20 05:29:34;;;;;;;3.80;1.83;;;18.10;99.90;;;;;;4231188;27;20225;-79
2022/01/20 05:31:36;;;;;;;7.20;2.40;;;18.00;99.90;;;;;;4246244;27;20726;-79
2022/01/20 05:33:39;;;;;;;4.18;1.77;;;18.00;99.90;;;;;;4245519;27;20209;-78
2022/01/20 05:35:42;;;;;;;4.75;2.10;;;18.10;99.90;;;;;;4237341;27;20210;-79
2022/01/20 05:37:45;;;;;;;4.30;1.95;;;18.10;99.90;;;;;;4229480;28;20622;-79
2022/01/20 05:39:47;;;;;;;4.97;2.05;;;18.00;99.90;;;;;;4229731;28;20229;-79
2022/01/20 05:41:49;;;;;;;5.32;2.05;;;18.00;99.90;;;;;;4230738;27;20620;-79
2022/01/20 05:43:52;;;;;;;4.82;2.28;;;18.00;99.90;;;;;;4244006;27;20201;-79
2022/01/20 05:45:54;;;;;;;4.47;1.90;;;18.00;99.90;;;;;;4229826;27;20259;-78
2022/01/20 05:48:08;;;;;;;3.45;1.98;;;18.00;99.90;;;;;;4243133;27;20661;-78
2022/01/20 05:50:11;;;;;;;4.97;1.77;;;18.00;99.90;;;;;;4233254;27;20228;-79
2022/01/20 05:52:15;;;;;;;4.80;2.00;;;18.00;99.90;;;;;;4238804;27;20283;-79
2022/01/20 05:54:17;;;;;;;3.50;1.50;;;17.90;99.90;;;;;;4238400;27;20661;-79
2022/01/20 05:56:20;;;;;;;4.60;2.30;;;17.80;99.90;;;;;;4225522;28;20550;-79
2022/01/20 05:58:22;;;;;;;5.22;2.22;;;17.70;99.90;;;;;;4227029;28;20290;-79
2022/01/20 06:00:25;;;;;;;3.22;1.80;;;17.80;99.90;;;;;;4236938;27;20213;-79
2022/01/20 06:02:34;;;;;;;5.50;2.20;;;17.80;99.90;;;;;;4234518;27;20214;-79
2022/01/20 06:04:37;;;;;;;5.53;2.00;;;17.90;99.90;;;;;;4233253;27;20213;-79
2022/01/20 06:06:40;;;;;;;6.15;2.40;;;18.00;99.90;;;;;;4230218;28;20271;-79
2022/01/20 06:08:44;;;;;;;4.68;1.70;;;18.00;99.90;;;;;;4228860;28;20257;-79
2022/01/20 06:10:46;;;;;;;5.55;1.70;;;18.00;99.90;;;;;;4241256;27;20697;-78
2022/01/20 06:12:48;;;;;;;3.63;1.85;;;18.00;99.90;;;;;;4244043;27;20340;-79
2022/01/20 06:14:51;;;;;;;4.88;1.77;;;18.10;99.90;;;;;;4240092;27;20218;-79
2022/01/20 06:16:53;;;;;;;4.72;1.58;;;18.10;99.90;;;;;;4229130;28;20271;-79
2022/01/20 06:18:56;;;;;;;4.60;1.88;;;18.10;99.90;;;;;;4227297;28;20365;-78
2022/01/20 06:20:58;;;;;;;4.93;1.80;;;18.10;99.90;;;;;;4240678;27;20225;-79
2022/01/20 06:23:01;;;;;;;5.15;2.20;;;18.10;99.90;;;;;;4235646;27;20214;-79
2022/01/20 06:25:07;;;;;;;4.97;2.00;;;18.10;99.90;;;;;;4228845;28;20326;-79
2022/01/20 06:27:09;;;;;;;6.53;2.13;;;18.10;99.90;;;;;;4229622;27;20218;-79
2022/01/20 06:29:12;;;;;;;4.70;1.92;;;18.10;99.90;;;;;;4230756;27;20286;-79
2022/01/20 06:31:16;;;;;;;6.50;2.03;;;18.20;99.90;;;;;;4244035;27;20217;-79
2022/01/20 06:33:18;;;;;;;7.75;2.22;;;18.20;99.90;;;;;;4244292;27;20212;-79
2022/01/20 06:35:21;;;;;;;4.28;1.80;;;18.20;99.90;;;;;;4210560;28;20240;-79
2022/01/20 06:37:23;;;;;;;5.95;1.60;;;18.20;99.90;;;;;;4204522;28;20279;-79
2022/01/20 06:39:25;;;;;;;5.22;2.00;;;18.20;99.90;;;;;;4193766;28;20223;-79
2022/01/20 06:41:33;;;;;;;4.65;1.55;;;18.20;99.90;;;;;;4204210;28;20296;-79
2022/01/20 06:43:36;;;;;;;3.08;1.48;;;18.20;99.90;;;;;;4193984;28;20279;-79
2022/01/20 06:45:38;;;;;;;6.55;1.88;;;18.20;99.90;;;;;;4196176;28;20207;-79
2022/01/20 06:47:40;;;;;;;4.90;1.90;;;18.20;99.90;;;;;;4204946;28;20211;-79
2022/01/20 06:49:43;;;;;;;5.13;1.92;;;18.20;99.90;;;;;;4210050;28;20289;-79
2022/01/20 06:51:45;;;;;;;6.97;1.90;;;18.20;99.90;;;;;;4207247;28;20275;-79
2022/01/20 06:53:48;;;;;;;4.80;1.98;;;18.20;99.90;;;;;;4195427;28;20272;-78
2022/01/20 06:55:50;;;;;;;6.85;1.65;;;18.20;99.90;;;;;;4193351;28;20320;-79
2022/01/20 06:57:54;;;;;;;4.72;1.95;;;18.20;99.90;;;;;;4193250;28;20219;-79
2022/01/20 06:59:56;;;;;;;4.30;1.80;;;18.20;99.90;;;;;;4194620;28;20211;-79
2022/01/20 07:01:58;;;;;;;6.00;2.10;;;18.20;99.90;;;;;;4194009;28;20257;-79
2022/01/20 07:04:01;;;;;;;3.92;1.73;;;18.30;99.90;;;;;;4194586;28;20626;-79
2022/01/20 07:06:03;;;;;;;4.00;1.60;;;18.20;99.90;;;;;;4197892;28;20676;-79
2022/01/20 07:08:05;;;;;;;5.72;1.83;;;18.30;99.90;;;;;;4207863;28;20268;-79
2022/01/20 07:10:10;;;;;;;4.20;1.50;;;18.30;99.90;;;;;;4205009;28;20640;-79
2022/01/20 07:12:12;;;;;;;4.68;1.73;;;18.30;99.90;;;;;;4211679;28;20202;-78
2022/01/20 07:14:17;;;;;;;5.68;1.98;;;18.30;99.90;;;;;;4207516;28;20257;-79
2022/01/20 07:16:19;;;;;;;6.78;2.20;;;18.30;99.90;;;;;;4195299;28;20215;-78
2022/01/20 07:18:21;;;;;;;3.85;1.80;;;18.30;99.90;;;;;;4195086;28;20660;-79
2022/01/20 07:20:24;;;;;;;5.38;1.50;;;18.30;99.90;;;;;;4205933;28;20206;-79
2022/01/20 07:22:26;;;;;;;4.18;1.50;;;18.30;99.90;;;;;;4210847;28;20203;-79
2022/01/20 07:24:30;;;;;;;3.97;1.85;;;18.30;99.90;;;;;;4201100;28;20211;-77
2022/01/20 07:26:32;;;;;;;5.47;1.45;;;18.20;99.90;;;;;;4197962;28;20273;-76
2022/01/20 07:28:35;;;;;;;3.95;1.65;;;18.30;99.90;;;;;;4198658;28;20223;-75
2022/01/20 07:30:38;;;;;;;5.35;1.95;;;18.30;99.90;;;;;;4187461;28;20749;-78
2022/01/20 07:32:41;;;;;;;3.42;1.70;;;18.50;99.90;;;;;;4193509;28;20257;-75
2022/01/20 07:34:43;;;;;;;4.80;1.77;;;18.70;99.90;;;;;;4218604;28;20297;-76
2022/01/20 07:36:45;;;;;;;4.35;1.50;;;18.80;99.40;;;;;;4224899;28;20279;-75
2022/01/20 07:38:48;;;;;;;6.00;1.60;;;19.00;99.40;;;;;;4227376;28;20275;-75
2022/01/20 07:40:50;;;;;;;5.05;1.80;;;19.10;99.90;;;;;;4220126;28;20260;-75
2022/01/20 07:42:53;;;;;;;3.92;1.70;;;19.20;99.60;;;;;;4222485;28;20259;-75
2022/01/20 07:44:55;;;;;;;4.50;1.65;;;19.30;99.50;;;;;;4227332;28;20590;-76
2022/01/20 07:46:58;;;;;;;3.63;1.60;;;19.30;99.40;;;;;;4214914;28;20631;-75
2022/01/20 07:49:01;;;;;;;5.78;1.80;;;19.30;99.00;;;;;;4228091;28;20210;-76
2022/01/20 07:51:05;;;;;;;5.45;1.50;;;19.40;98.90;;;;;;4226693;28;20551;-76
2022/01/20 07:53:08;;;;;;;3.70;1.40;;;19.40;99.00;;;;;;4226487;28;20267;-76
2022/01/20 07:55:11;;;;;;;3.58;1.70;;;19.50;99.30;;;;;;4210618;28;20215;-76
2022/01/20 07:57:13;;;;;;;8.18;2.22;;;19.50;99.70;;;;;;4220743;28;20611;-76
2022/01/20 07:59:15;;;;;;;7.15;1.75;;;19.40;98.60;;;;;;4223476;28;20217;-76
2022/01/20 08:01:18;;;;;;;5.93;1.70;;;19.30;98.70;;;;;;4221460;28;20267;-75
2022/01/20 08:03:22;;;;;;;7.03;1.95;;;19.40;99.90;;;;;;4224741;28;20562;-75
2022/01/20 08:05:24;;;;;;;3.28;1.35;;;19.50;99.00;;;;;;4222699;28;20614;-76
2022/01/20 08:07:27;;;;;;;2.20;1.30;;;19.60;98.90;;;;;;4223245;28;20260;-76
2022/01/20 08:09:29;;;;;;;4.75;1.88;;;19.70;98.40;;;;;;4226912;28;20206;-75
2022/01/20 08:11:31;;;;;;;3.60;1.85;;;19.70;98.20;;;;;;4223493;28;20689;-76
2022/01/20 08:13:34;;;;;;;4.32;1.70;;;19.80;98.00;;;;;;4225880;28;21915;-75
2022/01/20 08:15:39;;;;;;;4.78;1.83;;;19.80;98.00;;;;;;4227960;28;20267;-75
2022/01/20 08:17:43;;;;;;;4.10;1.67;;;19.90;97.80;;;;;;4223249;28;20227;-75
2022/01/20 08:19:47;;;;;;;3.85;1.77;;;19.90;97.90;;;;;;4229319;27;20637;-76
2022/01/20 08:21:49;;;;;;;5.57;1.90;;;19.90;98.10;;;;;;4225704;27;20234;-78
2022/01/20 08:23:51;;;;;;;4.57;1.80;;;19.90;98.40;;;;;;4225168;28;20214;-78
2022/01/20 08:25:54;;;;;;;5.38;2.00;;;20.00;98.30;;;;;;4224364;28;20620;-78
2022/01/20 08:27:57;;;;;;;5.65;1.55;;;19.90;99.00;;;;;;4225244;28;20210;-77
2022/01/20 08:29:59;;;;;;;6.50;1.63;;;19.90;98.20;;;;;;4229729;27;20214;-78
2022/01/20 08:32:02;;;;;;;8.15;1.80;;;19.90;98.00;;;;;;4222988;27;20213;-77
2022/01/20 08:34:04;;;;;;;6.93;1.98;;;20.10;98.60;;;;;;4231198;27;20322;-79
2022/01/20 08:36:08;;;;;;;5.55;2.00;;;20.10;98.10;;;;;;4220605;28;20214;-77
2022/01/20 08:38:11;;;;;;;7.00;1.98;;;20.10;98.20;;;;;;4226208;27;20258;-72
2022/01/20 08:40:16;;;;;;;10.73;2.15;;;20.00;98.70;;;;;;4229096;27;20221;-78
2022/01/20 08:42:18;;;;;;;5.38;1.98;;;20.00;97.90;;;;;;4229024;27;20228;-76
2022/01/20 08:44:20;;;;;;;8.80;2.22;;;20.00;98.10;;;;;;4227780;27;20221;-75
2022/01/20 08:46:25;;;;;;;8.88;2.00;;;20.10;98.30;;;;;;4225210;27;20214;-75
2022/01/20 08:48:27;;;;;;;4.60;1.80;;;20.10;98.60;;;;;;4227788;28;20241;-77
2022/01/20 08:50:31;;;;;;;4.97;2.03;;;20.10;98.20;;;;;;4226445;27;20241;-77
2022/01/20 08:52:35;;;;;;;6.00;2.00;;;20.20;98.50;;;;;;4222262;27;20214;-75
2022/01/20 08:54:41;;;;;;;4.72;1.95;;;20.40;98.30;;;;;;4219008;28;20235;-77
2022/01/20 08:56:44;;;;;;;5.50;2.10;;;20.30;98.10;;;;;;4224811;27;20286;-78
2022/01/20 08:58:46;;;;;;;5.30;1.92;;;20.40;98.30;;;;;;4222724;27;20206;-74
2022/01/20 09:00:48;;;;;;;5.90;2.00;;;20.40;98.60;;;;;;4224886;28;20282;-76
2022/01/20 09:02:50;;;;;;;5.22;2.10;;;20.40;98.70;;;;;;4228135;27;20206;-77
2022/01/20 09:04:53;;;;;;;5.40;2.13;;;20.40;98.80;;;;;;4227273;27;20237;-75
2022/01/20 09:06:55;;;;;;;5.40;1.92;;;20.40;99.00;;;;;;4223601;28;20258;-76
2022/01/20 09:08:59;;;;;;;6.65;1.92;;;20.40;98.60;;;;;;4221298;28;20864;-76
2022/01/20 09:11:03;;;;;;;5.65;1.80;;;20.50;98.90;;;;;;4224277;27;20273;-77
2022/01/20 09:15:30;;;;;;;4.43;1.83;;;20.60;99.20;;;;;;4226175;27;20193;-74
2022/01/20 09:17:33;;;;;;;4.68;2.25;;;20.50;99.30;;;;;;4227454;27;20273;-75
2022/01/20 09:19:35;;;;;;;6.35;2.03;;;20.50;99.40;;;;;;4224194;28;20221;-75
2022/01/20 09:21:39;;;;;;;6.05;1.95;;;20.50;99.20;;;;;;4231114;27;20290;-75
2022/01/20 09:23:42;;;;;;;3.92;1.67;;;20.50;99.30;;;;;;4225600;27;20214;-75
2022/01/20 09:25:55;;;;;;;4.93;1.88;;;20.60;99.40;;;;;;4234463;27;20277;-76
2022/01/20 09:27:57;;;;;;;6.53;1.92;;;20.60;99.50;;;;;;4232479;27;20265;-75
2022/01/20 09:30:02;;;;;;;6.22;1.90;;;20.60;99.90;;;;;;4233767;27;20258;-75
2022/01/20 09:32:07;;;;;;;4.30;1.88;;;20.60;99.60;;;;;;4226479;27;20632;-78
2022/01/20 09:34:10;;;;;;;4.88;2.20;;;20.60;99.20;;;;;;4224209;27;20689;-76
2022/01/20 09:36:12;;;;;;;7.43;2.00;;;20.60;99.30;;;;;;4234226;27;20210;-75
2022/01/20 09:38:14;;;;;;;4.85;1.80;;;20.60;99.60;;;;;;4222043;28;20210;-74
2022/01/20 09:40:17;;;;;;;5.10;1.90;;;20.70;99.60;;;;;;4218177;27;20222;-74
2022/01/20 09:42:22;;;;;;;6.15;2.15;;;20.60;99.90;;;;;;4223793;27;20214;-76
2022/01/20 09:44:24;;;;;;;5.65;2.08;;;20.60;99.90;;;;;;4223656;28;20218;-75
2022/01/20 09:46:29;;;;;;;6.90;2.00;;;20.70;99.90;;;;;;4223784;28;20271;-77
2022/01/20 09:48:32;;;;;;;5.45;2.05;;;20.70;99.90;;;;;;4223024;27;20218;-77
2022/01/20 09:50:34;;;;;;;5.47;1.77;;;20.80;99.90;;;;;;4222021;27;20271;-79
2022/01/20 09:52:39;;;;;;;9.05;2.53;;;20.80;99.60;;;;;;4226188;28;20241;-75
2022/01/20 09:54:41;;;;;;;7.40;2.00;;;20.80;99.60;;;;;;4224285;28;20263;-77
2022/01/20 09:56:45;;;;;;;7.40;1.90;;;21.00;99.60;;;;;;4222898;28;20722;-76
2022/01/20 09:58:49;;;;;;;5.75;2.38;;;21.00;99.40;;;;;;4225894;28;20255;-76
2022/01/20 10:00:51;;;;;;;6.68;2.30;;;21.10;99.20;;;;;;4224114;27;20259;-75
2022/01/20 10:03:05;;;;;;;8.85;1.95;;;21.10;99.30;;;;;;4225156;27;20673;-76
2022/01/20 10:05:08;;;;;;;10.30;2.28;;;21.00;99.20;;;;;;4220532;28;20482;-76
2022/01/20 10:07:13;;;;;;;7.35;2.00;;;21.00;99.30;;;;;;4219543;28;20263;-75
2022/01/20 10:09:27;;;;;;;5.85;2.08;;;21.00;99.90;;;;;;4222633;28;20222;-74
2022/01/20 10:11:30;;;;;;;8.50;3.13;;;21.00;99.10;;;;;;4223414;28;20693;-75
2022/01/20 10:13:35;;;;;;;6.53;2.33;;;21.10;98.80;;;;;;4224248;28;20267;-75
2022/01/20 10:15:39;;;;;;;6.72;2.10;;;21.10;98.60;;;;;;4225589;27;20209;-74
2022/01/20 10:17:42;;;;;;;11.70;2.88;;;21.10;98.60;;;;;;4222838;27;20219;-75
2022/01/20 10:19:44;;;;;;;5.53;2.20;;;21.00;98.60;;;;;;4227331;27;20263;-76
2022/01/20 10:21:47;;;;;;;5.93;2.15;;;21.00;98.90;;;;;;4223018;28;20210;-77
2022/01/20 10:23:50;;;;;;;8.00;2.40;;;20.90;98.50;;;;;;4217173;28;20214;-76
2022/01/20 10:26:02;;;;;;;7.22;2.28;;;21.00;98.40;;;;;;4224013;28;20210;-77
2022/01/20 10:28:08;;;;;;;8.98;2.35;;;21.00;98.40;;;;;;4223864;28;20254;-76
2022/01/20 10:30:11;;;;;;;6.30;2.10;;;21.10;98.60;;;;;;4223828;27;20214;-75
2022/01/20 10:32:15;;;;;;;7.32;2.20;;;21.20;98.70;;;;;;4227655;27;20234;-77
2022/01/20 10:34:28;;;;;;;5.93;2.42;;;21.20;99.00;;;;;;4223581;27;20229;-76
2022/01/20 10:36:37;;;;;;;8.35;2.00;;;21.20;98.70;;;;;;4229087;27;20213;-77
2022/01/20 10:38:56;;;;;;;6.13;2.10;;;21.20;98.80;;;;;;4225455;27;20217;-76
2022/01/20 10:40:59;;;;;;;13.50;2.65;;;21.20;98.70;;;;;;4223918;27;20214;-75
2022/01/20 10:43:01;;;;;;;7.20;2.67;;;21.30;98.80;;;;;;4225601;27;20758;-76
2022/01/20 10:45:05;;;;;;;10.23;2.17;;;21.20;98.20;;;;;;4229415;27;20314;-77
2022/01/20 10:47:12;;;;;;;4.65;1.85;;;21.30;98.70;;;;;;4230066;27;20318;-76
2022/01/20 10:49:18;;;;;;;8.38;2.47;;;21.40;99.40;;;;;;4225050;28;21450;-77
2022/01/20 10:51:22;;;;;;;3.95;1.90;;;21.40;99.20;;;;;;4229527;28;20338;-76
2022/01/20 10:53:25;;;;;;;8.57;1.98;;;21.40;99.60;;;;;;4230496;27;20714;-76
2022/01/20 10:55:29;;;;;;;5.93;1.92;;;21.30;99.30;;;;;;4231508;27;20221;-76
2022/01/20 10:57:35;;;;;;;9.48;2.50;;;21.40;98.80;;;;;;4225097;28;20218;-76
2022/01/20 10:59:50;;;;;;;5.65;1.95;;;21.50;98.80;;;;;;4225307;28;20247;-77
2022/01/20 11:02:05;;;;;;;6.10;2.28;;;21.50;98.80;;;;;;4224470;28;20210;-76
2022/01/20 11:04:08;;;;;;;7.93;2.40;;;21.50;98.80;;;;;;4224750;28;20262;-76
2022/01/20 11:06:12;;;;;;;7.43;2.28;;;21.50;99.20;;;;;;4227811;28;20247;-78
2022/01/20 11:08:15;;;;;;;6.55;2.42;;;21.50;97.60;;;;;;4222077;28;20715;-76
2022/01/20 11:10:17;;;;;;;5.80;2.08;;;21.50;98.60;;;;;;4227129;28;20244;-77
2022/01/20 11:12:19;;;;;;;5.60;1.92;;;21.50;98.40;;;;;;4222003;28;20238;-77
2022/01/20 11:14:22;;;;;;;4.05;1.88;;;21.50;98.40;;;;;;4228011;28;20662;-77
2022/01/20 11:16:25;;;;;;;3.92;1.85;;;21.50;98.70;;;;;;4226401;28;20210;-77
2022/01/20 11:18:28;;;;;;;5.55;2.05;;;21.60;98.90;;;;;;4223360;28;20218;-79
2022/01/20 11:20:39;;;;;;;5.97;2.33;;;21.60;98.90;;;;;;4226469;28;20221;-80
2022/01/20 11:22:54;;;;;;;7.60;2.20;;;21.70;98.80;;;;;;4221946;28;20209;-80
2022/01/20 11:25:01;;;;;;;7.18;2.15;;;21.70;99.40;;;;;;4224020;28;20214;-80
2022/01/20 11:27:07;;;;;;;7.93;2.03;;;21.80;98.60;;;;;;4223147;28;20706;-78
2022/01/20 11:29:09;;;;;;;5.25;2.15;;;21.70;98.30;;;;;;4219101;28;20271;-78
2022/01/20 11:31:12;;;;;;;5.72;2.22;;;21.80;98.70;;;;;;4222519;28;20259;-80
2022/01/20 11:33:16;;;;;;;4.25;1.65;;;21.80;98.50;;;;;;4223088;28;20282;-76
2022/01/20 11:35:20;;;;;;;5.88;2.03;;;21.90;99.00;;;;;;4221251;28;20238;-79